Terminal Aerodrome Forecast
Issued by NWS

Home | Current Version | Previous Version | Text Only | Print | Product List | Glossary On
Versions: 1 2 3 4 5 6 7 8 9 10 11 12 13 14 15
000
FTUS46 KSEW 012300
TAFPAE
TAF
KPAE 012320Z 0200/0224 26003KT P6SM OVC100
     FM020300 33003KT P6SM -RA BKN050 OVC100
     FM020600 03004KT P6SM -RA OVC040
     FM020900 03003KT P6SM BKN025 OVC040
     FM021500 34007KT P6SM BKN030
     FM021800 34012KT P6SM BKN050=

USA.gov is the U.S. government's official web portal to all federal, state and local government web resources and services.